Saint-Lin, Canada
Current Conditions -  °F | °C
As of 3:00 AM on Thursday 27 Nov 2014 (Local Time) from CYMX Reporting Station
Overcast Overcast  
Wind Chill: 22°   Ceiling: 13000
Heat Index: 28°   Visibility: 25mi
Dew Point: 18°   Wind: 6mph
Humidity: 64%   Direction: 360°N
Pressure: 30.02"   Gusts: NA
Location:  45.85°N, 73.77°W
Report Text: CYMX 270800Z 36005KT 350V070 25SM FEW035 OVC130 M02/M08 A3002 RMK SC1AS8 SC TR SLP170
Loading
Personal Weather Stations






























Interactive Weather Map New forecast layout! Learn more

10-Day Weather Forecast

Advertisements
Track Severe Weather on mobile